createdAt,value
2024-01-27T05:58:26.539Z,101053.69
2024-01-27T06:01:16.798Z,101056.31
2024-01-27T06:04:04.544Z,101058.97
2024-01-27T06:06:51.479Z,101062.47
2024-01-27T06:09:38.380Z,101079.06
2024-01-27T06:12:25.864Z,101080.84
2024-01-27T06:15:12.836Z,101081.72
2024-01-27T06:17:59.992Z,101086.13
2024-01-27T06:20:46.979Z,101097.44
2024-01-27T06:23:33.971Z,101096.59
2024-01-27T06:26:25.010Z,101088.78
2024-01-27T06:28:52.017Z,101089.63
2024-01-27T06:31:38.861Z,101094.88
2024-01-27T06:34:25.802Z,101114.09
2024-01-27T06:37:12.683Z,101118.47
2024-01-27T06:39:59.489Z,101122.84
2024-01-27T06:42:46.389Z,101129.00
2024-01-27T06:45:33.360Z,101139.47
2024-01-27T06:48:20.545Z,101136.88
2024-01-27T06:51:07.497Z,101142.13
2024-01-27T06:53:54.433Z,101145.66
2024-01-27T06:56:41.293Z,101147.41
2024-01-27T06:59:28.123Z,101150.91
2024-01-27T07:02:14.980Z,101147.44
2024-01-27T07:05:01.865Z,101142.22
2024-01-27T07:07:49.664Z,101144.84
2024-01-27T07:10:36.745Z,101161.41
2024-01-27T07:13:23.814Z,101166.66
2024-01-27T07:16:10.708Z,101155.38
2024-01-27T07:18:57.706Z,101159.72
2024-01-27T07:21:44.782Z,101143.16
2024-01-27T07:24:31.877Z,101145.78
2024-01-27T07:27:21.661Z,101137.09
2024-01-27T07:30:08.574Z,101153.66
2024-01-27T07:32:55.546Z,101144.97
2024-01-27T07:35:42.468Z,101147.59
2024-01-27T07:38:29.322Z,101153.69
2024-01-27T07:41:16.133Z,101153.69
2024-01-27T07:44:02.967Z,101156.31
2024-01-27T07:46:49.789Z,101146.75
2024-01-27T07:49:36.769Z,101170.28
2024-01-27T07:52:23.800Z,101171.13
2024-01-27T07:55:10.592Z,101216.44
2024-01-27T07:57:57.486Z,101239.97
2024-01-27T08:00:44.343Z,101212.13
2024-01-27T08:03:31.507Z,101215.56
2024-01-27T08:06:18.478Z,101209.50
2024-01-27T08:09:09.527Z,101211.25
2024-01-27T08:11:56.447Z,101192.06
2024-01-27T08:14:43.340Z,101182.50
2024-01-27T08:17:30.248Z,101172.94
2024-01-27T08:20:17.158Z,101176.41
2024-01-27T08:23:06.356Z,101154.63
2024-01-27T08:25:54.150Z,101177.28
2024-01-27T08:28:41.011Z,101207.75
2024-01-27T08:31:27.911Z,101215.59
2024-01-27T08:34:15.006Z,101240.00
2024-01-27T08:37:01.976Z,101211.25
2024-01-27T08:39:49.260Z,101246.06
2024-01-27T08:42:36.173Z,101230.38
2024-01-27T08:45:23.253Z,101231.28
2024-01-27T08:48:10.527Z,101220.81
2024-01-27T08:50:57.484Z,101215.59
2024-01-27T08:53:44.386Z,101199.03
2024-01-27T08:56:31.175Z,101193.81
2024-01-27T08:59:18.008Z,101218.22
2024-01-27T09:02:04.930Z,101203.41
2024-01-27T09:04:51.863Z,101214.72
2024-01-27T09:07:38.822Z,101178.16
2024-01-27T09:10:26.295Z,101214.72
2024-01-27T09:13:13.123Z,101228.66
2024-01-27T09:15:59.987Z,101217.31
2024-01-27T09:18:47.916Z,101227.78
2024-01-27T09:21:34.960Z,101244.31
2024-01-27T09:24:21.901Z,101230.41
2024-01-27T09:27:08.811Z,101245.22
2024-01-27T09:29:55.691Z,101231.25
2024-01-27T09:32:42.714Z,101226.03
2024-01-27T09:35:29.694Z,101229.53
2024-01-27T09:38:16.579Z,101247.81
2024-01-27T09:41:03.458Z,101260.88
2024-01-27T09:43:52.087Z,101242.59
2024-01-27T09:46:38.912Z,101250.41
2024-01-27T09:49:26.502Z,101221.69
2024-01-27T09:52:13.625Z,101229.50
2024-01-27T09:55:01.884Z,101247.78
2024-01-27T09:57:49.077Z,101261.75
2024-01-27T10:00:36.569Z,101251.28
2024-01-27T10:03:25.876Z,101254.75
2024-01-27T10:06:14.782Z,101253.88
2024-01-27T10:09:01.858Z,101250.38
2024-01-27T10:11:50.647Z,101238.19
2024-01-27T10:14:37.548Z,101252.97
2024-01-27T10:17:24.572Z,101245.13
2024-01-27T10:20:25.480Z,101242.50
2024-01-27T10:23:12.314Z,101236.41
2024-01-27T10:26:00.285Z,101232.88
2024-01-27T10:28:47.149Z,101227.63
2024-01-27T10:31:34.283Z,101224.16
2024-01-27T10:34:21.596Z,101240.69
2024-01-27T10:37:08.660Z,101242.41
2024-01-27T10:39:55.553Z,101243.25
2024-01-27T10:42:42.568Z,101259.81
2024-01-27T10:45:32.178Z,101259.78
2024-01-27T10:48:21.155Z,101268.50
2024-01-27T10:51:09.506Z,101266.72
2024-01-27T10:53:57.834Z,101259.72
2024-01-27T10:56:45.253Z,101259.69
2024-01-27T10:59:34.759Z,101255.31
2024-01-27T11:02:22.258Z,101246.53
2024-01-27T11:05:09.884Z,101257.88
2024-01-27T11:07:56.714Z,101251.75
2024-01-27T11:10:45.111Z,101243.84
2024-01-27T11:13:32.538Z,101239.44
2024-01-27T11:16:19.834Z,101241.13
2024-01-27T11:19:07.202Z,101237.59
2024-01-27T11:21:54.201Z,101230.56
2024-01-27T11:24:44.782Z,101200.06
2024-01-27T11:27:34.868Z,101226.13
2024-01-27T11:30:21.757Z,101232.16
2024-01-27T11:33:10.331Z,101226.00
2024-01-27T11:35:57.501Z,101231.19
2024-01-27T11:38:44.450Z,101240.75
2024-01-27T11:41:31.314Z,101255.59
2024-01-27T11:44:20.971Z,101259.00
2024-01-27T11:47:08.185Z,101259.88
2024-01-27T11:49:55.371Z,101265.06
2024-01-27T11:52:42.726Z,101262.41
2024-01-27T11:55:30.084Z,101263.25
2024-01-27T11:58:16.876Z,101254.44
2024-01-27T12:01:03.844Z,101261.47
2024-01-27T12:03:51.265Z,101252.75
2024-01-27T12:06:38.929Z,101261.47
2024-01-27T12:09:25.851Z,101282.31
2024-01-27T12:12:12.708Z,101281.41
2024-01-27T12:15:05.986Z,101281.38
2024-01-27T12:17:53.034Z,101277.84
2024-01-27T12:20:40.468Z,101281.28
2024-01-27T12:23:28.166Z,101266.41
2024-01-27T12:26:15.919Z,101259.41
2024-01-27T12:29:06.226Z,101240.09
2024-01-27T12:31:53.149Z,101244.44
2024-01-27T12:34:40.087Z,101227.81
2024-01-27T12:37:32.402Z,101221.66
2024-01-27T12:40:22.500Z,101213.72
2024-01-27T12:43:11.801Z,101194.53
2024-01-27T12:45:58.728Z,101191.78
2024-01-27T12:48:45.671Z,101182.16
2024-01-27T12:51:32.876Z,101175.16
2024-01-27T12:54:19.845Z,101173.34
2024-01-27T12:57:06.875Z,101168.97
2024-01-27T12:59:53.780Z,101158.47
2024-01-27T13:02:40.630Z,101165.44
2024-01-27T13:05:27.809Z,101154.06
2024-01-27T13:08:14.620Z,101160.16
2024-01-27T13:11:01.416Z,101154.03
2024-01-27T13:13:50.568Z,101154.91
2024-01-27T13:16:37.874Z,101147.88
2024-01-27T13:19:24.846Z,101144.41
2024-01-27T13:22:11.834Z,101134.72
2024-01-27T13:24:58.728Z,101146.97
2024-01-27T13:27:45.714Z,101162.72
2024-01-27T13:30:32.832Z,101188.06
2024-01-27T13:33:19.819Z,101202.94
2024-01-27T13:36:09.532Z,101187.19
2024-01-27T13:38:56.543Z,101184.56
2024-01-27T13:41:43.396Z,101174.94
2024-01-27T13:44:30.215Z,101167.09
2024-01-27T13:47:17.137Z,101163.56
2024-01-27T13:50:04.344Z,101154.84
2024-01-27T13:52:51.314Z,101158.34
2024-01-27T13:55:38.200Z,101151.38
2024-01-27T13:58:25.111Z,101168.03
2024-01-27T14:01:12.057Z,101175.03
2024-01-27T14:03:58.990Z,101173.28
2024-01-27T14:06:46.003Z,101180.31
2024-01-27T14:09:33.121Z,101171.69
2024-01-27T14:12:20.246Z,101175.09
2024-01-27T14:15:07.158Z,101176.88
2024-01-27T14:17:55.132Z,101144.78
2024-01-27T14:20:42.062Z,101178.66
2024-01-27T14:23:28.884Z,101164.72
2024-01-27T14:26:16.223Z,101168.19
2024-01-27T14:29:03.631Z,101152.50
2024-01-27T14:31:50.761Z,101141.16
2024-01-27T14:34:37.655Z,101134.16
2024-01-27T14:37:24.734Z,101116.72
2024-01-27T14:40:11.635Z,101118.44
2024-01-27T14:42:58.471Z,101129.88
2024-01-27T14:45:45.410Z,101124.66
2024-01-27T14:48:32.530Z,101129.03
2024-01-27T14:51:22.281Z,101136.09
2024-01-27T14:54:09.446Z,101134.34
2024-01-27T14:56:56.441Z,101132.59
2024-01-27T14:59:43.466Z,101132.63
2024-01-27T15:02:30.331Z,101118.69
2024-01-27T15:05:17.269Z,101129.16
2024-01-27T15:08:04.144Z,101124.81
2024-01-27T15:10:51.166Z,101120.44
2024-01-27T15:13:37.986Z,101114.34
2024-01-27T15:16:25.267Z,101121.38
2024-01-27T15:19:12.485Z,101112.63
2024-01-27T15:21:59.369Z,101117.88
2024-01-27T15:24:46.197Z,101122.28
2024-01-27T15:27:33.131Z,101122.31
2024-01-27T15:30:20.153Z,101110.97
2024-01-27T15:33:10.805Z,101104.84
2024-01-27T15:35:57.727Z,101105.75
2024-01-27T15:38:44.667Z,101104.88
2024-01-27T15:41:31.524Z,101099.63
2024-01-27T15:44:18.361Z,101098.78
2024-01-27T15:47:05.225Z,101098.81
2024-01-27T15:49:52.213Z,101088.31
2024-01-27T15:52:39.582Z,101091.78
2024-01-27T15:55:26.756Z,101086.59
2024-01-27T15:58:13.574Z,101083.94
2024-01-27T16:01:00.551Z,101076.94
2024-01-27T16:03:27.698Z,101063.84
2024-01-27T16:06:14.762Z,101067.34
2024-01-27T16:09:01.646Z,101066.47
2024-01-27T16:11:48.614Z,101070.81
2024-01-27T16:14:35.729Z,101077.81
2024-01-27T16:17:25.690Z,101070.78
2024-01-27T16:20:12.842Z,101069.06
2024-01-27T16:22:59.799Z,101047.16
2024-01-27T16:25:46.665Z,101042.78
2024-01-27T16:28:33.509Z,101057.63
2024-01-27T16:31:20.335Z,101055.88
2024-01-27T16:34:07.281Z,101054.13
2024-01-27T16:36:54.128Z,101046.22
2024-01-27T16:39:41.026Z,101043.59
2024-01-27T16:42:27.892Z,101035.69
2024-01-27T16:45:14.778Z,101007.72
2024-01-27T16:48:01.793Z,100994.53
2024-01-27T16:50:48.705Z,100987.53
2024-01-27T16:53:35.610Z,100980.50
2024-01-27T16:56:23.439Z,100970.84
2024-01-27T16:59:10.389Z,100964.75
2024-01-27T17:01:57.205Z,100968.16
2024-01-27T17:04:44.155Z,100987.44
2024-01-27T17:07:32.229Z,101002.28
2024-01-27T17:10:20.800Z,101003.19
2024-01-27T17:13:07.615Z,100998.75
2024-01-27T17:15:54.579Z,101008.34
2024-01-27T17:18:41.510Z,101012.72
2024-01-27T17:21:28.383Z,101005.69
2024-01-27T17:24:15.240Z,101017.94
2024-01-27T17:27:02.104Z,101003.91
2024-01-27T17:29:49.062Z,101017.00
2024-01-27T17:32:35.904Z,101021.34
2024-01-27T17:35:25.638Z,101021.34
2024-01-27T17:38:12.483Z,101002.09
2024-01-27T17:40:59.373Z,100999.44
2024-01-27T17:43:46.289Z,100957.75
2024-01-27T17:46:33.169Z,100979.28
2024-01-27T17:49:20.658Z,100985.41
2024-01-27T17:52:10.299Z,100991.50
2024-01-27T17:54:57.133Z,101003.75
2024-01-27T17:57:44.504Z,100984.44
2024-01-27T18:00:35.570Z,100978.34
2024-01-27T18:03:22.536Z,100974.06
2024-01-27T18:06:12.244Z,100989.66
2024-01-27T18:08:59.197Z,101008.91
2024-01-27T18:11:46.742Z,101003.66
2024-01-27T18:14:33.589Z,101001.00
2024-01-27T18:17:20.417Z,101007.16
2024-01-27T18:20:07.498Z,101016.72
2024-01-27T18:22:57.314Z,101019.31
2024-01-27T18:25:44.173Z,101012.31
2024-01-27T18:28:31.201Z,101013.25
2024-01-27T18:31:18.161Z,101017.56
2024-01-27T18:34:05.096Z,101017.56
2024-01-27T18:36:52.076Z,101044.66
2024-01-27T18:39:38.982Z,101045.66
2024-01-27T18:42:26.104Z,101052.53
2024-01-27T18:45:13.132Z,101049.91
2024-01-27T18:48:00.202Z,101056.91
2024-01-27T18:50:47.276Z,101065.66
2024-01-27T18:53:34.165Z,101062.16
2024-01-27T18:56:24.241Z,101071.75
2024-01-27T18:59:11.149Z,101070.00
2024-01-27T19:01:57.962Z,101086.63
2024-01-27T19:04:44.985Z,101065.59
2024-01-27T19:07:31.921Z,101063.81
2024-01-27T19:10:18.778Z,101052.47
2024-01-27T19:13:05.569Z,101047.22
2024-01-27T19:15:52.383Z,101053.31
2024-01-27T19:18:39.385Z,101047.19
2024-01-27T19:21:26.500Z,101034.94
2024-01-27T19:24:13.492Z,101036.69
2024-01-27T19:27:00.376Z,101022.75
2024-01-27T19:29:47.308Z,101052.41
2024-01-27T19:32:34.153Z,101051.53
2024-01-27T19:35:21.143Z,101050.63
2024-01-27T19:38:08.053Z,101034.03
2024-01-27T19:41:03.125Z,101049.81
2024-01-27T19:43:59.429Z,101060.22
2024-01-27T19:46:46.352Z,101022.88
2024-01-27T19:49:33.268Z,101061.06
2024-01-27T19:52:20.228Z,101057.59
2024-01-27T19:55:07.086Z,101060.19
2024-01-27T19:57:53.912Z,101075.94
2024-01-27T20:00:41.075Z,101070.69
2024-01-27T20:03:28.120Z,101074.16
2024-01-27T20:06:15.235Z,101078.53
2024-01-27T20:09:08.870Z,101075.06
2024-01-27T20:12:02.783Z,101082.91
2024-01-27T20:14:49.727Z,101076.75
2024-01-27T20:17:36.546Z,101075.00
2024-01-27T20:20:23.943Z,101078.50
2024-01-27T20:23:11.193Z,101085.47
2024-01-27T20:25:58.060Z,101083.72
2024-01-27T20:28:44.852Z,101097.69
2024-01-27T20:31:31.816Z,101099.47
2024-01-27T20:34:18.924Z,101096.81
2024-01-27T20:37:05.928Z,101088.94
2024-01-27T20:39:52.757Z,101085.44
2024-01-27T20:42:39.665Z,101087.19
2024-01-27T20:45:26.894Z,101094.19
2024-01-27T20:48:13.960Z,101075.09
2024-01-27T20:51:01.484Z,101106.44
2024-01-27T20:53:48.357Z,101099.47
2024-01-27T20:56:35.171Z,101120.47
2024-01-27T20:59:22.001Z,101143.19
2024-01-27T21:02:08.852Z,101137.09
2024-01-27T21:04:55.761Z,101138.88
2024-01-27T21:07:42.661Z,101138.00
2024-01-27T21:10:29.620Z,101134.50
2024-01-27T21:13:16.468Z,101130.16
2024-01-27T21:16:03.288Z,101144.16
2024-01-27T21:18:50.464Z,101134.50
2024-01-27T21:21:37.460Z,101131.06
2024-01-27T21:24:24.831Z,101137.19
2024-01-27T21:27:11.860Z,101142.47
2024-01-27T21:29:58.678Z,101141.63
2024-01-27T21:32:45.568Z,101144.34
2024-01-27T21:35:32.399Z,101154.00
2024-01-27T21:38:19.341Z,101162.72
2024-01-27T21:41:06.151Z,101175.88
2024-01-27T21:43:52.999Z,101191.63
2024-01-27T21:46:39.794Z,101194.28
2024-01-27T21:49:26.692Z,101197.78
2024-01-27T21:52:13.537Z,101204.81
2024-01-27T21:55:01.071Z,101208.34
2024-01-27T21:57:48.567Z,101218.00
2024-01-27T22:00:35.964Z,101217.16
2024-01-27T22:03:23.471Z,101217.19
2024-01-27T22:06:10.542Z,101221.56
2024-01-27T22:08:57.770Z,101226.91
2024-01-27T22:11:44.632Z,101243.53
2024-01-27T22:14:31.515Z,101263.66
2024-01-27T22:17:18.326Z,101254.91
2024-01-27T22:20:05.169Z,101247.06
2024-01-27T22:22:52.013Z,101254.09
2024-01-27T22:25:38.937Z,101245.38
2024-01-27T22:28:26.009Z,101252.41
2024-01-27T22:31:12.816Z,101268.19
2024-01-27T22:33:59.743Z,101276.06
2024-01-27T22:36:47.566Z,101275.22
2024-01-27T22:39:34.464Z,101269.16
2024-01-27T22:42:27.202Z,101268.28
2024-01-27T22:45:14.123Z,101249.13
2024-01-27T22:48:01.046Z,101271.84
2024-01-27T22:50:48.104Z,101267.47
2024-01-27T22:53:35.055Z,101274.50
2024-01-27T22:56:21.868Z,101290.28
2024-01-27T22:59:08.682Z,101275.41
2024-01-27T23:01:55.505Z,101283.28
2024-01-27T23:04:43.659Z,101294.69
2024-01-27T23:07:30.588Z,101292.97
2024-01-27T23:10:17.519Z,101296.44
2024-01-27T23:13:04.500Z,101296.50
2024-01-27T23:15:51.760Z,101286.97
2024-01-27T23:18:39.168Z,101310.50
2024-01-27T23:21:26.118Z,101313.16
2024-01-27T23:24:13.046Z,101312.28
2024-01-27T23:27:00.134Z,101311.41
2024-01-27T23:29:46.928Z,101305.34
2024-01-27T23:32:33.803Z,101304.47
2024-01-27T23:35:21.160Z,101308.00
2024-01-27T23:38:08.016Z,101315.00
2024-01-27T23:40:54.944Z,101308.88
2024-01-27T23:43:41.756Z,101321.16
2024-01-27T23:46:28.686Z,101311.53
2024-01-27T23:49:15.584Z,101310.69
2024-01-27T23:52:02.461Z,101321.19
2024-01-27T23:54:49.496Z,101315.09
2024-01-27T23:57:36.363Z,101317.72
